»·PEaware :: FJA1 KSAN-KABQ

FJA1 :: KSAN-KABQ

FLIGHT INFORMATION

Flight Status: Arrived
Operator: Unknown
More flights by this operator :: More flights under this callsign
Pilot: Jack S. (366)
Aircraft: BOEING 737-200
(B732)
More flights by this aircraft type
Origin: KSAN San Diego Intl-Lindbergh
United States
Destination: KABQ Albuquerque Intl Sunport
United States
More flights between these airports :: More routes between these airports
Route: +BRDR7 IPL J18 GBN PXR J18 SJN LAVAN3
File this flight plan on PilotEdge
Remarks: Callsign JACKAL
Altitude:
(Current/Filed)
33,000ft
Speed:
(Current/Filed)
450kts
Departed: 05-Dec-17 09:53 AM
Arrived: 05-Dec-17 11:12 AM
Distance/Time
Traveled:
544nm/1:18
Distance/Time
To Go:
Arrived

Flight Plot

Page will automatically refresh every two minutes.

Flight plan parsing failed; only flown route is shown


Map Options




Map Legend


Flown Route
Filed Route
Departure Airport
Arrival Airport
Navaid (VOR, NDB)
Fix

Horizontal Profiles

Position Reports

Time Latitude Longitude Heading Altitude Ground
Speed
05-Dec-17 09:30 32.734675 -117.204182 170 19ft 0kts
05-Dec-17 09:31 32.734675 -117.204182 170 19ft 0kts
05-Dec-17 09:32 32.734675 -117.204182 170 19ft 0kts
05-Dec-17 09:33 32.734675 -117.204182 170 19ft 0kts
05-Dec-17 09:34 32.734675 -117.204182 170 19ft 0kts
05-Dec-17 09:35 32.734675 -117.204182 170 19ft 0kts
05-Dec-17 09:36 32.734675 -117.204182 170 19ft 0kts
05-Dec-17 09:37 32.734675 -117.204182 170 19ft 0kts
05-Dec-17 09:38 32.734675 -117.204182 170 19ft 0kts
05-Dec-17 09:39 32.734675 -117.204182 170 19ft 0kts
05-Dec-17 09:40 32.734675 -117.204182 170 19ft 0kts
05-Dec-17 09:41 32.734675 -117.204182 170 19ft 0kts
05-Dec-17 09:42 32.734675 -117.204182 170 19ft 0kts
05-Dec-17 09:43 32.734675 -117.204182 170 19ft 0kts
05-Dec-17 09:44 32.734675 -117.204182 170 19ft 0kts
05-Dec-17 09:45 32.734965 -117.204293 144 19ft 2kts
05-Dec-17 09:46 32.735133 -117.204915 70 19ft 2kts
05-Dec-17 09:47 32.735035 -117.205129 59 19ft 0kts
05-Dec-17 09:48 32.735035 -117.205129 59 19ft 0kts
05-Dec-17 09:49 32.735083 -117.205033 59 19ft 5kts
05-Dec-17 09:50 32.735163 -117.200447 108 19ft 16kts
05-Dec-17 09:51 32.733894 -117.195196 108 22ft 15kts
05-Dec-17 09:52 32.732646 -117.190070 103 22ft 18kts
05-Dec-17 09:53 32.730914 -117.182861 106 20ft 26kts
05-Dec-17 09:54 32.729503 -117.176758 78 22ft 0kts
05-Dec-17 09:55 32.729503 -117.176758 78 22ft 0kts
05-Dec-17 09:56 32.729503 -117.176758 78 22ft 0kts
05-Dec-17 09:57 32.730419 -117.176781 287 25ft 30kts
05-Dec-17 09:58 32.739863 -117.220397 288 1220ft 188kts
05-Dec-17 09:59 32.759214 -117.287691 289 3575ft 254kts
05-Dec-17 10:00 32.749670 -117.365423 210 6921ft 273kts
05-Dec-17 10:01 32.683019 -117.336926 134 9878ft 290kts
05-Dec-17 10:02 32.626680 -117.258361 107 11575ft 339kts
05-Dec-17 10:03 32.601825 -117.149855 106 13845ft 356kts
05-Dec-17 10:04 32.591103 -117.029964 88 15600ft 380kts
05-Dec-17 10:05 32.599312 -116.902013 87 17331ft 398kts
05-Dec-17 10:06 32.612692 -116.769581 86 18906ft 414kts
05-Dec-17 10:07 32.627920 -116.631549 86 20278ft 429kts
05-Dec-17 10:08 32.641160 -116.513090 86 21315ft 441kts
05-Dec-17 10:09 32.659812 -116.342201 87 22643ft 456kts
05-Dec-17 10:10 32.675904 -116.193429 86 23653ft 467kts
05-Dec-17 10:11 32.689832 -116.065018 86 24434ft 475kts
05-Dec-17 10:12 32.706734 -115.907915 86 25272ft 485kts
05-Dec-17 10:13 32.726183 -115.724240 86 26199ft 492kts
05-Dec-17 10:14 32.740231 -115.590067 86 26798ft 497kts
05-Dec-17 10:15 32.756640 -115.426107 98 27428ft 498kts
05-Dec-17 10:16 32.749197 -115.274765 95 28070ft 504kts
05-Dec-17 10:17 32.752199 -115.106876 91 28647ft 510kts
05-Dec-17 10:18 32.757431 -114.938190 90 29266ft 513kts
05-Dec-17 10:19 32.762786 -114.768063 90 29784ft 518kts
05-Dec-17 10:20 32.768031 -114.598836 91 30499ft 517kts
05-Dec-17 10:21 32.770527 -114.427256 92 30986ft 522kts
05-Dec-17 10:22 32.772148 -114.279487 92 31483ft 522kts
05-Dec-17 10:23 32.773944 -114.107474 91 32135ft 518kts
05-Dec-17 10:24 32.775736 -113.936301 91 32444ft 523kts
05-Dec-17 10:25 32.777134 -113.771755 91 32803ft 526kts
05-Dec-17 10:26 32.772624 -113.599176 107 33111ft 522kts
05-Dec-17 10:27 32.768999 -113.425849 77 33213ft 538kts
05-Dec-17 10:28 32.805481 -113.258244 71 33178ft 539kts
05-Dec-17 10:29 32.848501 -113.089023 70 33184ft 538kts
05-Dec-17 10:30 32.892418 -112.919776 70 33183ft 538kts
05-Dec-17 10:31 32.934724 -112.749740 76 33181ft 541kts
05-Dec-17 10:32 32.990466 -112.589149 47 33205ft 524kts
05-Dec-17 10:33 33.080770 -112.454817 42 33203ft 519kts
05-Dec-17 10:34 33.169393 -112.333728 43 33173ft 518kts
05-Dec-17 10:35 33.261051 -112.206630 42 33164ft 510kts
05-Dec-17 10:36 33.353429 -112.079923 42 33164ft 508kts
05-Dec-17 10:37 33.445240 -111.953420 42 33169ft 506kts
05-Dec-17 10:38 33.501458 -111.800087 67 33173ft 518kts
05-Dec-17 10:39 33.555967 -111.640607 64 33187ft 519kts
05-Dec-17 10:40 33.613467 -111.482234 63 33182ft 521kts
05-Dec-17 10:41 33.670291 -111.326319 65 33174ft 524kts
05-Dec-17 10:42 33.726160 -111.168298 65 33216ft 522kts
05-Dec-17 10:43 33.783014 -111.008073 64 33259ft 522kts
05-Dec-17 10:44 33.839214 -110.848750 64 33276ft 523kts
05-Dec-17 10:45 33.895736 -110.688053 64 33346ft 524kts
05-Dec-17 10:46 33.952230 -110.526391 64 33375ft 526kts
05-Dec-17 10:47 34.008845 -110.364009 63 33380ft 527kts
05-Dec-17 10:48 34.062692 -110.206609 64 33363ft 524kts
05-Dec-17 10:49 34.115595 -110.054266 63 33358ft 520kts
05-Dec-17 10:50 34.170530 -109.896143 64 33364ft 519kts
05-Dec-17 10:51 34.225522 -109.735051 64 33370ft 518kts
05-Dec-17 10:52 34.280040 -109.574371 64 33364ft 519kts
05-Dec-17 10:53 34.334583 -109.412762 64 33364ft 520kts
05-Dec-17 10:54 34.382263 -109.255423 75 33360ft 521kts
05-Dec-17 10:55 34.421602 -109.087124 71 33354ft 520kts
05-Dec-17 10:56 34.462768 -108.920196 76 33365ft 520kts
05-Dec-17 10:57 34.492588 -108.749322 77 33357ft 521kts
05-Dec-17 10:58 34.521839 -108.579248 77 32455ft 514kts
05-Dec-17 10:59 34.550966 -108.408337 78 29663ft 524kts
05-Dec-17 11:00 34.574338 -108.267397 80 28239ft 503kts
05-Dec-17 11:01 34.601305 -108.104619 80 26341ft 483kts
05-Dec-17 11:02 34.626796 -107.950848 81 24483ft 460kts
05-Dec-17 11:03 34.652515 -107.802229 80 22557ft 438kts
05-Dec-17 11:04 34.685622 -107.664068 63 19900ft 419kts
05-Dec-17 11:05 34.737731 -107.542569 63 17485ft 393kts
05-Dec-17 11:06 34.783869 -107.434586 64 16381ft 348kts
05-Dec-17 11:07 34.826733 -107.333494 65 14965ft 332kts
05-Dec-17 11:08 34.867662 -107.235402 65 14444ft 333kts
05-Dec-17 11:09 34.908738 -107.138071 65 13418ft 316kts
05-Dec-17 11:10 34.947440 -107.046085 64 11796ft 301kts
05-Dec-17 11:11 34.985235 -106.956057 62 9975ft 296kts
05-Dec-17 11:12 35.021160 -106.869680 62 8974ft 263kts
05-Dec-17 11:13 35.034820 -106.785246 83 7946ft 246kts
05-Dec-17 11:14 35.042016 -106.706934 80 6611ft 221kts
05-Dec-17 11:15 35.044429 -106.642383 89 5777ft 138kts
05-Dec-17 11:16 35.044262 -106.601928 90 5329ft 70kts
05-Dec-17 11:17 35.045229 -106.596321 28 5337ft 0kts
05-Dec-17 11:18 35.045806 -106.598259 264 5335ft 17kts
05-Dec-17 11:19 35.045756 -106.605988 270 5324ft 26kts
05-Dec-17 11:20 35.046113 -106.613181 353 5324ft 9kts
05-Dec-17 11:21 35.048366 -106.613623 272 5324ft 9kts
05-Dec-17 11:22 35.047845 -106.614334 208 5324ft 0kts
05-Dec-17 11:23 35.047845 -106.614334 208 5324ft 0kts
05-Dec-17 11:24 35.047845 -106.614334 208 5324ft 0kts

Navigation Log

Ident Type
Flight plan parsing failed, navigation log unavailable